Time;durP1;ratioP1;P1;durP2;ratioP2;P2;SDS_P1;SDS_P2;PMS_P1;PMS_P2;Temp;Humidity;BMP_temperature;BMP_pressure;BME280_temperature;BME280_humidity;BME280_pressure;Samples;Min_cycle;Max_cycle;Signal;HPM_P1;HPM_P2
2020/12/25 05:01:55;;;;;;;10.00;8.23;;;3.80;99.90;;;;;;5316972;23;20502;-62
2020/12/25 05:04:23;;;;;;;8.33;7.57;;;3.90;99.90;;;;;;4977274;28;20933;-62
2020/12/25 05:06:49;;;;;;;8.20;7.40;;;3.80;99.90;;;;;;4977476;28;20486;-63
2020/12/25 05:09:16;;;;;;;9.37;8.40;;;3.90;99.90;;;;;;4977494;28;20458;-61
2020/12/25 05:11:43;;;;;;;10.13;7.77;;;3.80;99.90;;;;;;4977087;28;20997;-63
2020/12/25 05:14:09;;;;;;;9.13;8.23;;;3.80;99.90;;;;;;4977446;28;20466;-61
2020/12/25 05:16:38;;;;;;;9.47;8.20;;;3.70;99.90;;;;;;4976919;28;20984;-62
2020/12/25 05:19:06;;;;;;;8.60;7.70;;;3.70;99.90;;;;;;4977307;28;20462;-63
2020/12/25 05:21:39;;;;;;;10.07;8.27;;;3.70;99.90;;;;;;4977131;28;20561;-63
2020/12/25 05:24:07;;;;;;;10.87;8.40;;;3.80;99.90;;;;;;4977155;28;20530;-62
2020/12/25 05:26:33;;;;;;;9.30;8.33;;;3.70;99.90;;;;;;4977151;28;20884;-63
2020/12/25 05:29:00;;;;;;;9.07;8.17;;;3.80;99.90;;;;;;4977033;28;20513;-63
2020/12/25 05:31:27;;;;;;;9.50;7.93;;;3.70;99.90;;;;;;4976950;28;20482;-63
2020/12/25 05:33:57;;;;;;;8.83;7.97;;;3.60;99.90;;;;;;4976716;28;20458;-62
2020/12/25 05:36:28;;;;;;;9.93;8.90;;;3.60;99.90;;;;;;4976631;28;20494;-62
2020/12/25 05:38:55;;;;;;;9.67;8.37;;;3.60;99.90;;;;;;4977779;28;20434;-63
2020/12/25 05:41:21;;;;;;;8.80;7.90;;;3.70;99.90;;;;;;4977668;28;20794;-64
2020/12/25 05:43:48;;;;;;;9.00;8.07;;;3.80;99.90;;;;;;4976737;28;20858;-61
2020/12/25 05:46:15;;;;;;;9.13;8.23;;;3.80;99.90;;;;;;4976750;28;20529;-62
2020/12/25 05:48:41;;;;;;;10.10;9.10;;;3.70;99.90;;;;;;4976314;28;20478;-63
2020/12/25 05:51:08;;;;;;;10.20;9.13;;;3.70;99.90;;;;;;4976603;28;20474;-62
2020/12/25 05:53:36;;;;;;;9.80;8.80;;;3.70;99.90;;;;;;4976546;28;20493;-60
2020/12/25 05:56:03;;;;;;;9.97;8.87;;;3.80;99.90;;;;;;4976434;28;20455;-63
2020/12/25 05:58:34;;;;;;;10.33;9.17;;;3.70;99.90;;;;;;4976482;28;20446;-64
2020/12/25 06:01:01;;;;;;;9.30;8.30;;;3.70;99.90;;;;;;4976302;28;20482;-63
2020/12/25 06:03:27;;;;;;;10.03;8.90;;;3.70;99.90;;;;;;4976469;28;20454;-61
2020/12/25 06:05:58;;;;;;;11.07;9.17;;;3.70;99.90;;;;;;4976382;28;20450;-62
2020/12/25 06:08:36;;;;;;;10.30;8.80;;;3.70;99.90;;;;;;4976310;28;20490;-63
2020/12/25 06:11:04;;;;;;;9.93;8.73;;;3.80;99.90;;;;;;4975921;28;20496;-63
2020/12/25 06:13:40;;;;;;;9.50;7.97;;;3.70;99.90;;;;;;4976146;28;20458;-62
2020/12/25 06:16:09;;;;;;;10.30;9.33;;;3.80;99.90;;;;;;4976035;28;20934;-63
2020/12/25 06:18:45;;;;;;;9.80;8.73;;;3.80;99.90;;;;;;4976041;28;20443;-64
2020/12/25 06:21:17;;;;;;;9.20;8.30;;;3.70;99.90;;;;;;4976402;28;20482;-62
2020/12/25 06:23:44;;;;;;;10.30;9.20;;;3.80;99.90;;;;;;4975998;28;20443;-62
2020/12/25 06:26:11;;;;;;;10.70;9.00;;;3.70;99.90;;;;;;4976462;28;20466;-63
2020/12/25 06:28:41;;;;;;;9.67;8.33;;;3.60;99.90;;;;;;4975880;28;20474;-62
2020/12/25 06:31:10;;;;;;;10.43;8.43;;;3.60;99.90;;;;;;4975825;28;21005;-63
2020/12/25 06:33:36;;;;;;;9.67;8.63;;;3.70;99.90;;;;;;4975815;28;20553;-63
2020/12/25 06:36:02;;;;;;;10.83;9.00;;;3.70;99.90;;;;;;4975832;28;20459;-63
2020/12/25 06:38:34;;;;;;;10.03;8.43;;;3.70;99.90;;;;;;4975797;28;20451;-63
2020/12/25 06:41:01;;;;;;;10.07;9.00;;;3.60;99.90;;;;;;4975670;28;20479;-63
2020/12/25 06:43:28;;;;;;;9.70;8.70;;;3.60;99.90;;;;;;4975621;28;20451;-64
2020/12/25 06:45:59;;;;;;;10.20;9.07;;;3.60;99.90;;;;;;4974992;28;20458;-62
2020/12/25 06:48:29;;;;;;;11.33;9.13;;;3.60;99.90;;;;;;4975808;28;20473;-64
2020/12/25 06:50:57;;;;;;;11.40;10.13;;;3.60;99.90;;;;;;4975458;28;20471;-61
2020/12/25 06:53:37;;;;;;;12.43;9.80;;;3.60;99.90;;;;;;4975491;28;20455;-63
2020/12/25 06:56:12;;;;;;;10.20;9.10;;;3.60;99.90;;;;;;4975089;28;20921;-61
2020/12/25 06:58:41;;;;;;;9.97;8.97;;;3.60;99.90;;;;;;4975210;28;20513;-63
2020/12/25 07:01:08;;;;;;;12.73;10.00;;;3.50;99.90;;;;;;4975520;28;20490;-62
2020/12/25 07:03:35;;;;;;;12.33;9.60;;;3.50;99.90;;;;;;4975359;28;20865;-62
2020/12/25 07:06:02;;;;;;;10.70;9.60;;;3.50;99.90;;;;;;4984694;28;20459;-62
2020/12/25 07:08:30;;;;;;;11.40;10.27;;;3.60;99.90;;;;;;4983250;28;20483;-62
2020/12/25 07:11:17;;;;;;;12.87;10.23;;;3.50;99.90;;;;;;4983670;28;20498;-62
2020/12/25 07:13:43;;;;;;;11.57;9.60;;;3.60;99.90;;;;;;4978117;28;20439;-63
2020/12/25 07:16:09;;;;;;;10.47;9.33;;;3.60;99.90;;;;;;4975569;28;20461;-62
2020/12/25 07:18:36;;;;;;;11.17;9.97;;;3.60;99.90;;;;;;4975018;28;20948;-64
2020/12/25 07:21:04;;;;;;;10.90;9.20;;;3.60;99.90;;;;;;4975318;28;20475;-62
2020/12/25 07:23:30;;;;;;;11.27;9.20;;;3.60;99.90;;;;;;4975085;28;20458;-63
2020/12/25 07:25:58;;;;;;;11.00;9.00;;;3.60;99.90;;;;;;4975218;28;20451;-62
2020/12/25 07:28:27;;;;;;;12.77;10.07;;;3.60;99.90;;;;;;4974625;28;20510;-62
2020/12/25 07:30:54;;;;;;;10.60;9.50;;;3.60;99.90;;;;;;4975360;28;20482;-62
2020/12/25 07:33:21;;;;;;;12.03;10.73;;;3.60;99.90;;;;;;4975419;28;20454;-62
2020/12/25 07:35:48;;;;;;;11.50;9.40;;;3.60;99.90;;;;;;4976269;28;20451;-64
2020/12/25 07:38:15;;;;;;;12.10;10.80;;;3.70;99.90;;;;;;4976867;28;20517;-65
2020/12/25 07:40:42;;;;;;;11.80;10.23;;;3.80;99.90;;;;;;4975407;28;20470;-63
2020/12/25 07:43:08;;;;;;;13.63;10.30;;;3.70;99.90;;;;;;4974678;28;20853;-62
2020/12/25 07:45:36;;;;;;;12.83;11.10;;;3.70;99.90;;;;;;4974963;28;20458;-63
2020/12/25 07:48:04;;;;;;;12.40;10.63;;;3.70;99.90;;;;;;4975138;28;20482;-64
2020/12/25 07:50:36;;;;;;;13.87;11.20;;;3.60;99.90;;;;;;4975610;28;20478;-62
2020/12/25 07:53:07;;;;;;;12.77;9.77;;;3.70;99.90;;;;;;4974795;28;20509;-63
2020/12/25 07:55:34;;;;;;;12.80;10.03;;;3.70;99.90;;;;;;4975302;28;20447;-63
2020/12/25 07:58:01;;;;;;;11.97;10.70;;;3.70;99.90;;;;;;4977384;28;20458;-62
2020/12/25 08:00:27;;;;;;;12.83;10.80;;;3.70;99.90;;;;;;4980834;28;20458;-62
2020/12/25 08:02:54;;;;;;;12.90;9.97;;;3.80;99.90;;;;;;4980976;28;20447;-62
2020/12/25 08:05:21;;;;;;;10.30;9.20;;;3.80;99.90;;;;;;4980942;28;20822;-62
2020/12/25 08:07:47;;;;;;;14.20;10.00;;;3.80;99.90;;;;;;4981330;28;20474;-63
2020/12/25 08:10:17;;;;;;;11.00;9.83;;;3.90;99.90;;;;;;4981017;28;20450;-63
2020/12/25 08:12:48;;;;;;;12.70;9.90;;;3.90;99.90;;;;;;4981198;28;20490;-62
2020/12/25 08:15:15;;;;;;;13.57;11.20;;;3.90;99.90;;;;;;4981001;28;20443;-63
2020/12/25 08:17:41;;;;;;;12.87;11.47;;;3.90;99.90;;;;;;4981171;28;20454;-63
2020/12/25 08:20:08;;;;;;;13.60;11.43;;;3.80;99.90;;;;;;4982248;28;20461;-63
2020/12/25 08:22:37;;;;;;;14.60;12.00;;;3.80;99.90;;;;;;4984080;28;20478;-62
2020/12/25 08:25:04;;;;;;;14.77;12.40;;;3.80;99.90;;;;;;4983677;28;20501;-62
2020/12/25 08:27:32;;;;;;;11.37;9.97;;;3.80;99.90;;;;;;4983548;28;20482;-61
2020/12/25 08:30:00;;;;;;;14.27;11.40;;;3.80;99.90;;;;;;4983301;28;20544;-61
2020/12/25 08:32:29;;;;;;;17.20;12.00;;;3.80;99.90;;;;;;4983038;28;20513;-63
2020/12/25 08:35:16;;;;;;;14.00;11.67;;;3.80;99.90;;;;;;4981737;28;20473;-63
2020/12/25 08:37:53;;;;;;;13.50;11.90;;;3.90;99.90;;;;;;4981976;28;20493;-63
2020/12/25 08:40:19;;;;;;;15.63;12.47;;;3.90;99.90;;;;;;4981717;28;20458;-62
2020/12/25 08:42:45;;;;;;;15.33;12.43;;;4.00;99.90;;;;;;4981097;28;20954;-62
2020/12/25 08:45:20;;;;;;;15.30;12.13;;;4.10;99.90;;;;;;4981500;28;20458;-63
2020/12/25 08:48:09;;;;;;;15.37;12.37;;;4.20;99.90;;;;;;4980966;28;20473;-62
2020/12/25 08:50:36;;;;;;;15.80;12.40;;;4.20;99.90;;;;;;4981140;28;20474;-62
2020/12/25 08:53:26;;;;;;;15.13;11.93;;;4.20;99.90;;;;;;4980750;28;20489;-62
2020/12/25 08:55:54;;;;;;;13.10;11.80;;;4.30;99.90;;;;;;4981254;28;20450;-62
2020/12/25 08:58:22;;;;;;;13.90;12.27;;;4.20;99.90;;;;;;4980623;28;20458;-62
2020/12/25 09:00:59;;;;;;;15.57;12.73;;;4.20;99.90;;;;;;4980393;28;20529;-62
2020/12/25 09:03:36;;;;;;;16.43;11.53;;;4.20;99.90;;;;;;4980834;28;20442;-63
2020/12/25 09:06:03;;;;;;;16.40;12.00;;;4.20;99.90;;;;;;4980591;28;20501;-62
2020/12/25 09:08:30;;;;;;;15.93;12.27;;;4.30;99.90;;;;;;4980803;28;20482;-62
2020/12/25 09:10:56;;;;;;;14.17;12.27;;;4.40;99.90;;;;;;4976478;28;20478;-62
2020/12/25 09:13:22;;;;;;;11.93;10.10;;;4.50;99.90;;;;;;4977495;28;20509;-63
2020/12/25 09:15:48;;;;;;;15.07;12.00;;;4.50;99.90;;;;;;4977411;28;20458;-63
2020/12/25 09:18:14;;;;;;;15.50;11.30;;;4.50;99.90;;;;;;4977429;28;20455;-62
2020/12/25 09:20:41;;;;;;;13.13;11.77;;;4.50;99.90;;;;;;4977374;28;20474;-62
2020/12/25 09:23:08;;;;;;;13.83;12.43;;;4.50;99.90;;;;;;4977322;28;20462;-63
2020/12/25 09:25:34;;;;;;;12.87;11.23;;;4.50;99.90;;;;;;4977610;28;20586;-62
2020/12/25 09:28:00;;;;;;;11.97;10.30;;;4.50;99.90;;;;;;4976995;28;20478;-62
2020/12/25 09:30:26;;;;;;;12.63;10.50;;;4.60;99.90;;;;;;4977601;28;20485;-62
2020/12/25 09:32:52;;;;;;;15.00;11.50;;;4.60;99.90;;;;;;4977520;28;20439;-62
2020/12/25 09:35:18;;;;;;;11.80;10.50;;;4.60;99.90;;;;;;4977232;28;20462;-62
2020/12/25 09:37:45;;;;;;;14.10;12.50;;;4.60;99.90;;;;;;4976988;28;20454;-62
2020/12/25 09:40:12;;;;;;;11.93;10.17;;;4.60;99.90;;;;;;4977403;28;20459;-62
2020/12/25 09:42:38;;;;;;;11.57;9.87;;;4.70;99.90;;;;;;4977071;28;20455;-64
2020/12/25 09:45:05;;;;;;;12.03;10.27;;;4.50;99.90;;;;;;4977028;28;20509;-61
2020/12/25 09:47:31;;;;;;;10.23;8.87;;;4.50;99.90;;;;;;4976915;28;20461;-62
2020/12/25 09:49:57;;;;;;;12.27;9.70;;;4.40;99.90;;;;;;4978763;28;20466;-60
2020/12/25 09:52:23;;;;;;;11.73;8.77;;;4.40;99.90;;;;;;4989793;28;20479;-61
2020/12/25 09:54:49;;;;;;;12.37;9.17;;;4.40;99.90;;;;;;4988183;28;20481;-61
2020/12/25 09:57:16;;;;;;;9.30;7.33;;;4.30;99.90;;;;;;4985495;28;20459;-61
2020/12/25 09:59:42;;;;;;;11.07;8.50;;;4.10;99.90;;;;;;4984000;28;20457;-62
2020/12/25 10:02:08;;;;;;;9.50;8.43;;;4.20;99.90;;;;;;4978859;28;20485;-61
2020/12/25 10:04:37;;;;;;;10.00;8.70;;;4.20;99.90;;;;;;4978077;28;20976;-63
2020/12/25 10:07:04;;;;;;;10.77;8.03;;;4.20;99.90;;;;;;4976937;28;20884;-62
2020/12/25 10:09:30;;;;;;;10.80;8.10;;;4.30;99.90;;;;;;4976813;28;20533;-63
2020/12/25 10:11:56;;;;;;;10.27;8.93;;;4.20;99.90;;;;;;4976259;28;21009;-62
2020/12/25 10:14:23;;;;;;;12.40;7.53;;;4.20;99.90;;;;;;4976646;28;20804;-62
2020/12/25 10:16:49;;;;;;;10.67;8.53;;;4.20;99.90;;;;;;4976732;28;20454;-62
2020/12/25 10:19:16;;;;;;;11.37;9.10;;;4.20;99.90;;;;;;4976736;28;20810;-62
2020/12/25 10:21:42;;;;;;;9.70;8.00;;;4.30;99.90;;;;;;4976601;28;20478;-63
2020/12/25 10:24:08;;;;;;;11.50;8.00;;;4.30;99.90;;;;;;4977058;28;20458;-63
2020/12/25 10:26:37;;;;;;;9.80;8.80;;;4.20;99.90;;;;;;4978791;28;20454;-63
2020/12/25 10:29:03;;;;;;;9.97;8.43;;;4.30;99.90;;;;;;4976841;28;20875;-63
2020/12/25 10:31:32;;;;;;;8.20;7.37;;;4.30;99.90;;;;;;4976915;28;20474;-62
2020/12/25 10:33:58;;;;;;;8.07;7.23;;;4.30;99.90;;;;;;4978078;28;20450;-61
2020/12/25 10:36:25;;;;;;;12.50;8.73;;;4.40;99.90;;;;;;4977164;28;20462;-62
2020/12/25 10:38:51;;;;;;;8.67;7.80;;;4.40;99.90;;;;;;4976902;28;20458;-64
2020/12/25 10:41:17;;;;;;;12.67;8.10;;;4.50;99.90;;;;;;4976506;28;20993;-63
2020/12/25 10:43:45;;;;;;;9.40;7.40;;;4.50;99.90;;;;;;4975761;28;20455;-62
2020/12/25 10:46:11;;;;;;;7.80;7.03;;;4.40;99.90;;;;;;4975962;28;20454;-62
2020/12/25 10:48:38;;;;;;;10.50;7.80;;;4.40;99.90;;;;;;4976965;28;20553;-62
2020/12/25 10:51:06;;;;;;;8.80;7.40;;;4.50;99.90;;;;;;4976415;28;20565;-62
2020/12/25 10:53:33;;;;;;;8.47;7.10;;;4.50;99.90;;;;;;4976116;28;20458;-64
2020/12/25 10:55:59;;;;;;;7.70;6.93;;;4.40;99.90;;;;;;4975619;28;20458;-62
2020/12/25 10:58:25;;;;;;;8.47;7.43;;;4.40;99.90;;;;;;4975623;28;20501;-62
2020/12/25 11:00:51;;;;;;;7.53;6.77;;;4.30;99.90;;;;;;4975125;28;20497;-61
2020/12/25 11:03:17;;;;;;;11.50;6.80;;;4.10;99.90;;;;;;4975475;28;20974;-62
2020/12/25 11:05:44;;;;;;;7.10;6.40;;;4.10;99.90;;;;;;4975403;28;20848;-62
2020/12/25 11:08:11;;;;;;;11.57;7.30;;;4.20;99.90;;;;;;4975339;28;20483;-63
2020/12/25 11:10:37;;;;;;;7.10;6.40;;;4.10;99.90;;;;;;4975222;28;20475;-61
2020/12/25 11:13:03;;;;;;;8.07;6.17;;;4.10;99.90;;;;;;4974970;28;20969;-62
2020/12/25 11:15:29;;;;;;;7.13;6.40;;;4.20;99.90;;;;;;4975288;28;20804;-61
2020/12/25 11:17:55;;;;;;;7.03;6.33;;;4.20;99.90;;;;;;4975502;28;20871;-63
2020/12/25 11:20:21;;;;;;;7.00;6.40;;;4.20;99.90;;;;;;4975334;28;20466;-63
2020/12/25 11:22:48;;;;;;;7.93;6.73;;;4.20;99.90;;;;;;4975261;28;20458;-63
2020/12/25 11:25:14;;;;;;;7.77;6.97;;;4.20;99.90;;;;;;4975171;28;20491;-63
2020/12/25 11:27:41;;;;;;;6.60;5.73;;;4.30;99.90;;;;;;4974837;28;20469;-62
2020/12/25 11:30:07;;;;;;;6.67;6.07;;;4.30;99.90;;;;;;4975017;28;20872;-63
2020/12/25 11:32:33;;;;;;;7.87;6.17;;;4.30;99.90;;;;;;4974548;28;20482;-62
2020/12/25 11:34:59;;;;;;;8.97;6.23;;;4.40;99.90;;;;;;4975472;28;20454;-65
2020/12/25 11:37:25;;;;;;;9.40;6.13;;;4.40;99.90;;;;;;4975146;28;20459;-63
2020/12/25 11:39:52;;;;;;;6.10;5.40;;;4.40;99.90;;;;;;4975146;28;20511;-62
2020/12/25 11:42:19;;;;;;;6.17;5.57;;;4.50;99.90;;;;;;4974910;28;20481;-63
2020/12/25 11:44:45;;;;;;;6.50;5.90;;;4.30;99.90;;;;;;4974858;28;20455;-62
2020/12/25 11:47:11;;;;;;;6.10;5.20;;;4.30;99.90;;;;;;4974571;28;20454;-63
2020/12/25 11:49:37;;;;;;;8.03;5.30;;;4.30;99.90;;;;;;4975092;28;20482;-64
2020/12/25 11:52:03;;;;;;;5.70;5.20;;;4.30;99.90;;;;;;4975305;28;20478;-63
2020/12/25 11:54:29;;;;;;;7.57;5.70;;;4.20;99.90;;;;;;4975120;28;20458;-62
2020/12/25 11:56:57;;;;;;;7.57;5.77;;;4.30;99.90;;;;;;4974450;28;20458;-62
2020/12/25 11:59:23;;;;;;;7.53;5.30;;;4.30;99.90;;;;;;4974609;28;20455;-62
2020/12/25 12:01:49;;;;;;;5.80;5.00;;;4.40;99.90;;;;;;4974325;28;20541;-61
2020/12/25 12:04:15;;;;;;;5.50;4.70;;;4.30;99.90;;;;;;4974613;28;20463;-62
2020/12/25 12:06:42;;;;;;;7.40;4.90;;;4.20;99.90;;;;;;4974888;28;20454;-61
2020/12/25 12:09:08;;;;;;;4.97;4.50;;;4.20;99.90;;;;;;4974706;28;20909;-64
2020/12/25 12:11:40;;;;;;;7.33;5.17;;;4.30;99.90;;;;;;4974573;28;20471;-64
2020/12/25 12:14:08;;;;;;;6.40;5.10;;;4.30;99.90;;;;;;4975734;28;20776;-62
2020/12/25 12:16:34;;;;;;;4.77;4.20;;;4.30;99.90;;;;;;4975725;28;20550;-63
2020/12/25 12:19:00;;;;;;;4.70;4.30;;;4.10;99.90;;;;;;4974123;28;20962;-64
2020/12/25 12:21:26;;;;;;;4.67;4.27;;;4.10;99.90;;;;;;4974848;28;20831;-61
2020/12/25 12:23:52;;;;;;;4.97;4.47;;;4.10;99.90;;;;;;4976396;28;20462;-62
2020/12/25 12:26:18;;;;;;;5.10;4.70;;;4.00;99.90;;;;;;4978138;28;20531;-62
2020/12/25 12:28:45;;;;;;;7.77;4.73;;;4.10;99.90;;;;;;4978882;28;20903;-62
2020/12/25 12:31:12;;;;;;;5.03;4.50;;;4.10;99.90;;;;;;4977951;28;20471;-63
2020/12/25 12:33:38;;;;;;;7.33;5.10;;;4.10;99.90;;;;;;4975641;28;20466;-62
2020/12/25 12:36:04;;;;;;;6.80;5.63;;;4.20;99.90;;;;;;4974928;28;20458;-63
2020/12/25 12:38:31;;;;;;;9.50;6.80;;;4.10;99.90;;;;;;4974724;28;20450;-64
2020/12/25 12:40:57;;;;;;;7.10;6.40;;;4.10;99.90;;;;;;4976989;28;20807;-62
2020/12/25 12:43:23;;;;;;;7.37;6.67;;;4.10;99.90;;;;;;4976512;28;20455;-63
2020/12/25 12:45:49;;;;;;;6.23;5.63;;;4.00;99.90;;;;;;4976967;28;20505;-62
2020/12/25 12:48:16;;;;;;;7.10;5.63;;;3.80;99.90;;;;;;4978108;28;20482;-62
2020/12/25 12:50:43;;;;;;;6.60;6.00;;;3.70;99.90;;;;;;4977957;28;20840;-63
2020/12/25 12:53:09;;;;;;;8.20;6.77;;;3.80;99.90;;;;;;4978026;28;20454;-61
2020/12/25 12:55:35;;;;;;;6.67;5.90;;;3.80;99.90;;;;;;4977881;28;20462;-62
2020/12/25 12:58:01;;;;;;;5.30;4.80;;;3.80;99.90;;;;;;4977615;28;21008;-63
2020/12/25 13:00:27;;;;;;;6.20;5.60;;;3.60;99.90;;;;;;4977602;28;20464;-63
2020/12/25 13:02:53;;;;;;;5.77;5.27;;;3.60;99.90;;;;;;4978266;28;20459;-63
2020/12/25 13:05:20;;;;;;;6.63;5.60;;;3.50;99.90;;;;;;4977786;28;20458;-64
2020/12/25 13:07:47;;;;;;;4.50;4.20;;;3.60;99.90;;;;;;4977879;28;20455;-61
2020/12/25 13:10:13;;;;;;;5.90;5.20;;;3.60;99.90;;;;;;4977720;28;20454;-62
2020/12/25 13:12:39;;;;;;;4.40;4.00;;;3.60;99.90;;;;;;4977700;28;20458;-62
2020/12/25 13:15:05;;;;;;;4.70;4.30;;;3.50;99.90;;;;;;4977770;28;20494;-62
2020/12/25 13:17:31;;;;;;;4.43;4.00;;;3.50;99.90;;;;;;4977734;28;20454;-62
2020/12/25 13:19:57;;;;;;;4.93;4.40;;;3.50;99.90;;;;;;4977722;28;20455;-64
2020/12/25 13:22:24;;;;;;;4.70;4.27;;;3.40;99.90;;;;;;4977757;28;20509;-62
2020/12/25 13:24:51;;;;;;;4.40;4.00;;;3.40;99.90;;;;;;4977615;28;20478;-62
2020/12/25 13:27:17;;;;;;;4.63;4.23;;;3.40;99.90;;;;;;4977294;28;20950;-63
2020/12/25 13:29:43;;;;;;;4.57;4.17;;;3.40;99.90;;;;;;4977573;28;20483;-63
2020/12/25 13:32:09;;;;;;;4.10;3.80;;;3.90;99.90;;;;;;4977861;28;20481;-64
2020/12/25 13:34:35;;;;;;;4.00;3.70;;;4.40;99.90;;;;;;4977993;28;21025;-63
2020/12/25 13:37:01;;;;;;;4.10;3.67;;;4.70;99.90;;;;;;4977984;28;20455;-65
2020/12/25 13:39:28;;;;;;;3.50;3.27;;;4.80;99.90;;;;;;4977958;28;20454;-63
2020/12/25 13:41:55;;;;;;;3.97;3.67;;;5.10;99.90;;;;;;4976862;28;21058;-64
2020/12/25 13:44:21;;;;;;;4.60;4.20;;;5.10;99.90;;;;;;4977474;28;20458;-64
2020/12/25 13:46:48;;;;;;;4.70;4.40;;;5.30;99.90;;;;;;4977441;28;20530;-64
2020/12/25 13:49:14;;;;;;;4.30;4.00;;;5.10;99.90;;;;;;4976729;28;21063;-63
2020/12/25 13:51:40;;;;;;;4.40;4.00;;;4.80;99.90;;;;;;4977660;28;21006;-63
2020/12/25 13:54:06;;;;;;;4.43;4.03;;;4.60;99.90;;;;;;4977379;28;20532;-64
2020/12/25 13:56:35;;;;;;;6.83;4.90;;;4.30;99.90;;;;;;4977061;28;20516;-62
2020/12/25 13:59:01;;;;;;;7.90;6.17;;;4.10;99.90;;;;;;4977236;28;20482;-63
2020/12/25 14:01:28;;;;;;;6.00;5.07;;;3.90;99.90;;;;;;4976863;28;20478;-63
2020/12/25 14:03:54;;;;;;;5.60;4.10;;;3.90;99.90;;;;;;4977054;28;20461;-63
2020/12/25 14:06:28;;;;;;;3.77;3.47;;;3.80;99.90;;;;;;4976751;28;20805;-64
2020/12/25 14:08:54;;;;;;;5.00;4.20;;;3.70;99.90;;;;;;4976815;28;20520;-64
2020/12/25 14:11:21;;;;;;;4.50;3.80;;;3.60;99.90;;;;;;4976871;28;20486;-64
2020/12/25 14:13:48;;;;;;;4.80;4.33;;;3.70;99.90;;;;;;4976909;28;20451;-63
2020/12/25 14:16:15;;;;;;;4.20;3.80;;;3.70;99.90;;;;;;4976958;28;20489;-65
2020/12/25 14:18:42;;;;;;;3.67;3.43;;;3.70;99.90;;;;;;4976766;28;20450;-64
2020/12/25 14:21:09;;;;;;;5.10;4.40;;;3.60;99.90;;;;;;4976407;28;21023;-64
2020/12/25 14:23:35;;;;;;;4.33;3.93;;;3.70;99.90;;;;;;4976584;28;20459;-63
2020/12/25 14:26:01;;;;;;;4.50;4.13;;;3.70;99.90;;;;;;4976238;28;20829;-63
2020/12/25 14:28:27;;;;;;;4.10;3.70;;;3.80;99.90;;;;;;4976875;28;20548;-65
2020/12/25 14:30:54;;;;;;;4.20;3.80;;;3.80;99.90;;;;;;4976572;28;20479;-63
2020/12/25 14:33:20;;;;;;;3.93;3.63;;;3.70;99.90;;;;;;4976405;28;20439;-65
2020/12/25 14:35:46;;;;;;;4.10;3.80;;;3.70;99.90;;;;;;4976358;28;20463;-64
2020/12/25 14:38:13;;;;;;;3.63;3.33;;;3.70;99.90;;;;;;4976529;28;20450;-64
2020/12/25 14:40:39;;;;;;;4.30;3.77;;;3.70;99.90;;;;;;4975746;28;20969;-63
2020/12/25 14:43:05;;;;;;;4.90;3.60;;;3.70;99.90;;;;;;4975908;28;20461;-63
2020/12/25 14:45:31;;;;;;;4.73;4.33;;;3.50;99.90;;;;;;4976103;28;20458;-63
2020/12/25 14:48:01;;;;;;;4.20;3.90;;;3.50;99.90;;;;;;4975734;28;21027;-62
2020/12/25 14:50:28;;;;;;;6.43;3.60;;;3.40;99.90;;;;;;4975982;28;20457;-63
2020/12/25 14:52:54;;;;;;;6.20;3.53;;;3.40;99.90;;;;;;4976072;28;20466;-62
2020/12/25 14:55:20;;;;;;;3.40;3.20;;;3.40;99.90;;;;;;4976548;28;20458;-64
2020/12/25 14:57:46;;;;;;;4.20;3.80;;;3.40;99.90;;;;;;4976521;28;20462;-62
2020/12/25 15:00:12;;;;;;;4.00;3.67;;;3.50;99.90;;;;;;4975832;28;20455;-63
2020/12/25 15:02:38;;;;;;;4.53;4.17;;;3.50;99.90;;;;;;4975690;28;20865;-65
2020/12/25 15:05:06;;;;;;;4.00;3.70;;;3.50;99.90;;;;;;4975925;28;20609;-63
2020/12/25 15:07:32;;;;;;;4.40;4.00;;;3.50;99.90;;;;;;4975088;28;20551;-65
2020/12/25 15:09:58;;;;;;;4.17;3.87;;;3.60;99.90;;;;;;4975330;28;20886;-65
2020/12/25 15:12:26;;;;;;;4.33;3.97;;;3.70;99.90;;;;;;4975530;28;20985;-64
2020/12/25 15:14:53;;;;;;;4.87;3.47;;;3.60;99.90;;;;;;4976003;28;20493;-64
2020/12/25 15:17:19;;;;;;;3.50;3.30;;;3.60;99.90;;;;;;4975871;28;20505;-62
2020/12/25 15:19:45;;;;;;;3.67;3.37;;;3.70;99.90;;;;;;4975818;28;20458;-64
2020/12/25 15:22:12;;;;;;;3.63;3.43;;;3.70;99.90;;;;;;4976145;28;20486;-66
2020/12/25 15:24:38;;;;;;;3.53;3.23;;;3.70;99.90;;;;;;4976639;28;20465;-64
2020/12/25 15:27:05;;;;;;;3.73;3.43;;;3.70;99.90;;;;;;4976222;28;20549;-64
2020/12/25 15:29:31;;;;;;;4.37;4.07;;;3.70;99.90;;;;;;4985425;28;20501;-64
2020/12/25 15:31:57;;;;;;;4.33;3.90;;;3.80;99.90;;;;;;4992442;28;20478;-63
2020/12/25 15:34:24;;;;;;;3.90;3.60;;;3.80;99.90;;;;;;4994898;28;20459;-63
2020/12/25 15:36:58;;;;;;;8.00;4.70;;;3.80;99.90;;;;;;4993943;28;20462;-65
2020/12/25 15:39:26;;;;;;;4.20;3.90;;;3.80;99.90;;;;;;4989598;28;20891;-64
2020/12/25 15:41:52;;;;;;;7.90;6.27;;;3.80;99.90;;;;;;4976690;28;20838;-63
2020/12/25 15:44:19;;;;;;;7.87;6.23;;;3.70;99.90;;;;;;4976950;28;20458;-65
2020/12/25 15:46:45;;;;;;;7.10;5.87;;;3.70;99.90;;;;;;4976500;28;20462;-64
2020/12/25 15:49:12;;;;;;;6.70;6.00;;;3.80;99.90;;;;;;4975743;28;20481;-65
2020/12/25 15:51:38;;;;;;;7.53;5.80;;;3.80;99.90;;;;;;4975326;28;20531;-64
2020/12/25 15:54:05;;;;;;;4.63;4.20;;;3.70;99.90;;;;;;4974991;28;20947;-65
2020/12/25 15:56:32;;;;;;;5.10;4.70;;;3.70;99.90;;;;;;4975216;28;20439;-62
2020/12/25 15:58:58;;;;;;;4.13;3.93;;;3.80;99.90;;;;;;4974824;28;20447;-63
2020/12/25 16:01:24;;;;;;;4.90;3.87;;;3.80;99.90;;;;;;4974828;28;20831;-63
2020/12/25 16:03:50;;;;;;;4.90;4.50;;;3.80;99.90;;;;;;4975279;28;20463;-62
2020/12/25 16:06:16;;;;;;;4.90;4.30;;;3.80;99.90;;;;;;4975017;28;20439;-63
2020/12/25 16:08:44;;;;;;;6.17;5.57;;;3.80;99.90;;;;;;4975001;28;20474;-63
2020/12/25 16:11:10;;;;;;;3.60;3.30;;;3.80;99.90;;;;;;4974797;28;20474;-63
2020/12/25 16:13:37;;;;;;;4.20;3.90;;;3.80;99.90;;;;;;4974934;28;20937;-64
2020/12/25 16:16:04;;;;;;;4.13;3.83;;;3.80;99.90;;;;;;4975827;28;20439;-63
2020/12/25 16:18:30;;;;;;;3.50;3.27;;;3.80;99.90;;;;;;4975388;28;20442;-63
2020/12/25 16:20:56;;;;;;;3.80;3.43;;;3.80;99.90;;;;;;4978730;28;20541;-64
2020/12/25 16:23:22;;;;;;;3.57;3.23;;;3.90;99.90;;;;;;4978939;28;20442;-62
2020/12/25 16:25:48;;;;;;;3.73;3.43;;;3.80;99.90;;;;;;4978644;28;20447;-64
2020/12/25 16:28:15;;;;;;;3.80;3.50;;;3.90;99.90;;;;;;4978427;28;20466;-63
2020/12/25 16:30:42;;;;;;;3.83;3.20;;;3.80;99.90;;;;;;4978585;28;20478;-64
2020/12/25 16:33:08;;;;;;;2.80;2.60;;;3.90;99.90;;;;;;4978570;28;20505;-63
2020/12/25 16:35:34;;;;;;;3.70;3.40;;;3.80;99.90;;;;;;4979147;28;20465;-64
2020/12/25 16:38:00;;;;;;;8.80;2.93;;;3.70;99.90;;;;;;4978834;28;20458;-65
2020/12/25 16:40:26;;;;;;;3.90;3.67;;;3.70;99.90;;;;;;4978699;28;20458;-64
2020/12/25 16:42:56;;;;;;;3.50;3.30;;;3.70;99.90;;;;;;4978500;28;20501;-64
2020/12/25 16:45:22;;;;;;;4.43;3.20;;;3.70;99.90;;;;;;4978053;28;20461;-63
2020/12/25 16:47:49;;;;;;;3.87;3.47;;;3.60;99.90;;;;;;4978384;28;20822;-64
2020/12/25 16:50:15;;;;;;;3.63;2.83;;;3.60;99.90;;;;;;4978341;28;20482;-64
2020/12/25 16:52:41;;;;;;;3.67;3.30;;;3.60;99.90;;;;;;4978139;28;20950;-63
2020/12/25 16:55:07;;;;;;;4.00;3.80;;;3.60;99.90;;;;;;4978161;28;20458;-64
2020/12/25 16:57:34;;;;;;;3.60;3.30;;;3.60;99.90;;;;;;4978228;28;20455;-63
2020/12/25 17:00:00;;;;;;;3.93;3.63;;;3.60;99.90;;;;;;4978810;28;20450;-65
2020/12/25 17:02:26;;;;;;;3.70;3.50;;;3.60;99.90;;;;;;4978003;28;21001;-65
2020/12/25 17:04:53;;;;;;;3.63;3.33;;;3.60;99.90;;;;;;4977994;28;20458;-63
2020/12/25 17:07:19;;;;;;;4.20;3.83;;;3.60;99.90;;;;;;4978107;28;20504;-64
2020/12/25 17:09:47;;;;;;;5.10;4.70;;;3.60;99.90;;;;;;4979105;28;20485;-64
2020/12/25 17:12:13;;;;;;;3.40;3.20;;;3.60;99.90;;;;;;4978514;28;20529;-64
2020/12/25 17:14:40;;;;;;;7.73;4.70;;;3.50;99.90;;;;;;4978364;28;20450;-64
2020/12/25 17:17:06;;;;;;;4.83;4.43;;;3.40;99.90;;;;;;4977882;28;20493;-65
2020/12/25 17:19:32;;;;;;;4.80;4.40;;;3.40;99.90;;;;;;4977790;28;20546;-64
2020/12/25 17:21:59;;;;;;;4.47;4.07;;;3.40;99.90;;;;;;4977246;28;21001;-64
2020/12/25 17:24:25;;;;;;;4.93;4.53;;;3.40;99.90;;;;;;4977619;28;20455;-65
2020/12/25 17:26:55;;;;;;;8.80;7.30;;;3.30;99.90;;;;;;4977673;28;20454;-65
2020/12/25 17:29:21;;;;;;;6.23;5.53;;;3.30;99.90;;;;;;4977709;28;20482;-64
2020/12/25 17:31:47;;;;;;;5.10;4.70;;;3.30;99.90;;;;;;4976245;28;21014;-64
2020/12/25 17:34:14;;;;;;;5.60;5.00;;;3.30;99.90;;;;;;4977653;28;20479;-64
2020/12/25 17:36:40;;;;;;;5.00;4.50;;;3.30;99.90;;;;;;4977366;28;20458;-64
2020/12/25 17:39:07;;;;;;;4.40;4.00;;;3.20;99.90;;;;;;4977547;28;20458;-65
2020/12/25 17:41:33;;;;;;;5.87;5.27;;;3.20;99.90;;;;;;4977634;28;20478;-65
2020/12/25 17:43:59;;;;;;;5.70;5.20;;;3.10;99.90;;;;;;4980230;28;20459;-65
2020/12/25 17:46:26;;;;;;;5.77;5.00;;;3.10;99.90;;;;;;4986917;28;20885;-66
2020/12/25 17:48:52;;;;;;;7.57;6.80;;;3.00;99.90;;;;;;4987086;28;20475;-65
2020/12/25 17:51:18;;;;;;;8.20;6.47;;;3.00;99.90;;;;;;4989082;28;20478;-65
2020/12/25 17:53:46;;;;;;;9.30;7.50;;;2.90;99.90;;;;;;4978390;28;20860;-66